Time;durP1;ratioP1;P1;durP2;ratioP2;P2;SDS_P1;SDS_P2;PMS_P1;PMS_P2;Temp;Humidity;BMP_temperature;BMP_pressure;BME280_temperature;BME280_humidity;BME280_pressure;Samples;Min_cycle;Max_cycle;Signal;HPM_P1;HPM_P2
2022/08/20 00:03:08;;;;;;;11.60;8.50;;;;;;;23.61;67.88;99829.23;129978;1270;108758;-68
2022/08/20 00:06:18;;;;;;;12.50;8.80;;;;;;;23.57;68.08;99830.45;129950;1271;110281;-70
2022/08/20 00:09:23;;;;;;;13.30;9.00;;;;;;;23.57;68.54;99824.45;129720;1270;109700;-68
2022/08/20 00:12:28;;;;;;;12.10;9.40;;;;;;;23.58;68.48;99829.75;129989;1270;108668;-68
2022/08/20 00:15:36;;;;;;;13.30;9.50;;;;;;;23.55;68.73;99838.70;129878;1270;109514;-69
2022/08/20 00:18:42;;;;;;;16.20;11.10;;;;;;;23.56;68.81;99841.00;129920;1270;108537;-68
2022/08/20 00:21:48;;;;;;;14.20;9.70;;;;;;;23.56;69.06;99842.08;129974;1270;108778;-69
2022/08/20 00:24:53;;;;;;;11.10;8.70;;;;;;;23.50;69.10;99840.53;129882;1271;109164;-69
2022/08/20 00:28:02;;;;;;;12.70;8.10;;;;;;;23.43;69.39;99843.86;129992;1271;107695;-69
2022/08/20 00:31:10;;;;;;;11.40;8.10;;;;;;;23.40;69.58;99841.34;129892;1270;108450;-68
2022/08/20 00:34:16;;;;;;;10.50;8.30;;;;;;;23.35;69.79;99836.42;129989;1270;107832;-68
2022/08/20 00:37:21;;;;;;;10.10;8.60;;;;;;;23.30;70.07;99831.66;129868;1270;108996;-68
2022/08/20 00:40:30;;;;;;;11.50;8.70;;;;;;;23.27;69.98;99831.19;129972;1271;110456;-68
2022/08/20 00:43:39;;;;;;;11.60;8.40;;;;;;;23.21;70.32;99824.76;129883;1271;108914;-68
2022/08/20 00:46:46;;;;;;;10.10;8.30;;;;;;;23.18;70.41;99822.70;129904;1270;108336;-68
2022/08/20 00:49:52;;;;;;;12.40;8.10;;;;;;;23.16;70.60;99809.33;129942;1270;109642;-68
2022/08/20 00:52:57;;;;;;;15.40;11.10;;;;;;;23.14;70.87;99802.98;129932;1270;109597;-68
2022/08/20 00:56:04;;;;;;;13.00;10.30;;;;;;;23.13;71.04;99796.40;129897;1270;107702;-68
2022/08/20 00:59:14;;;;;;;12.80;10.80;;;;;;;23.12;70.94;99797.85;129980;1270;108441;-68
2022/08/20 01:02:22;;;;;;;12.80;9.50;;;;;;;23.12;71.23;99824.40;129990;1270;107592;-70
2022/08/20 01:05:27;;;;;;;12.80;8.90;;;;;;;23.08;71.52;99863.25;129941;1270;107422;-70
2022/08/20 01:08:33;;;;;;;11.60;8.00;;;;;;;23.00;72.27;99843.83;129896;1270;108526;-69
2022/08/20 01:11:39;;;;;;;13.50;8.10;;;;;;;22.99;72.29;99846.79;129959;1270;108957;-66
2022/08/20 01:14:45;;;;;;;12.90;9.10;;;;;;;23.01;72.21;99843.30;129934;1270;109557;-67
2022/08/20 01:17:57;;;;;;;13.20;9.60;;;;;;;23.00;72.34;99838.52;130070;1270;108646;-69
2022/08/20 01:21:06;;;;;;;11.30;8.40;;;;;;;22.88;72.78;99830.81;130067;1270;108732;-70
2022/08/20 01:24:17;;;;;;;10.40;7.80;;;;;;;22.84;72.92;99835.04;129986;1270;107437;-69
2022/08/20 01:27:24;;;;;;;12.40;8.50;;;;;;;22.90;73.15;99829.86;129967;1269;108262;-69
2022/08/20 01:30:31;;;;;;;10.30;8.90;;;;;;;22.88;73.27;99809.11;129973;1271;109003;-69
2022/08/20 01:33:37;;;;;;;12.20;9.10;;;;;;;22.76;73.75;99778.38;130100;1270;108639;-68
2022/08/20 01:36:45;;;;;;;14.10;8.30;;;;;;;22.73;73.67;99774.46;129946;1271;108837;-67
2022/08/20 01:39:50;;;;;;;10.50;8.10;;;;;;;22.76;74.03;99773.14;129986;1271;108805;-68
2022/08/20 01:42:56;;;;;;;14.60;8.50;;;;;;;22.69;74.14;99763.67;129974;1270;108856;-68
2022/08/20 01:46:02;;;;;;;10.70;8.90;;;;;;;22.62;74.27;99751.09;130014;1270;106930;-68
2022/08/20 01:49:12;;;;;;;11.20;9.30;;;;;;;22.55;74.89;99752.38;129975;1270;110349;-68
2022/08/20 01:52:26;;;;;;;11.60;9.00;;;;;;;22.51;74.87;99750.25;129877;1270;108867;-66
2022/08/20 01:55:32;;;;;;;15.70;8.90;;;;;;;22.52;74.99;99749.17;129979;1270;109573;-68
2022/08/20 01:58:41;;;;;;;10.30;8.20;;;;;;;22.58;75.09;99748.95;130031;1270;108768;-67
2022/08/20 02:01:47;;;;;;;11.50;8.40;;;;;;;22.62;75.04;99752.02;129970;1270;108903;-67
2022/08/20 02:04:52;;;;;;;10.30;8.50;;;;;;;22.68;75.16;99755.38;129936;1270;108856;-68
2022/08/20 02:07:57;;;;;;;11.50;7.70;;;;;;;22.72;74.92;99759.48;129976;1270;109669;-67
2022/08/20 02:11:03;;;;;;;9.20;7.20;;;;;;;22.73;74.95;99783.92;129896;1270;109132;-67
2022/08/20 02:14:10;;;;;;;9.80;8.20;;;;;;;22.79;74.93;99791.58;130016;1270;108836;-67
2022/08/20 02:17:17;;;;;;;12.60;8.50;;;;;;;22.80;75.14;99783.71;130049;1270;108576;-67
2022/08/20 02:20:30;;;;;;;12.80;8.90;;;;;;;22.82;75.30;99782.92;130006;1270;109020;-67
2022/08/20 02:23:36;;;;;;;11.90;9.20;;;;;;;22.83;75.38;99783.70;129968;1270;107624;-67
2022/08/20 02:26:42;;;;;;;10.60;7.90;;;;;;;22.82;75.23;99788.48;129902;1270;108266;-67
2022/08/20 02:29:47;;;;;;;10.30;7.80;;;;;;;22.81;75.45;99786.83;129942;1270;109485;-67
2022/08/20 02:32:53;;;;;;;11.00;8.20;;;;;;;22.80;75.52;99790.30;129955;1270;108542;-67
2022/08/20 02:35:58;;;;;;;13.50;9.20;;;;;;;22.79;75.67;99773.84;129947;1270;108753;-67
2022/08/20 02:39:06;;;;;;;10.80;8.80;;;;;;;22.77;75.87;99761.95;129943;1270;108679;-68
2022/08/20 02:42:12;;;;;;;10.80;8.60;;;;;;;22.75;75.96;99754.20;129981;1271;108489;-67
2022/08/20 02:45:19;;;;;;;12.60;8.60;;;;;;;22.73;76.07;99751.55;129918;1270;107512;-68
2022/08/20 02:48:25;;;;;;;11.40;8.70;;;;;;;22.64;76.28;99749.91;129954;1270;108897;-68
2022/08/20 02:51:30;;;;;;;10.50;8.00;;;;;;;22.60;76.38;99743.72;129935;1270;107471;-69
2022/08/20 02:54:35;;;;;;;11.20;8.10;;;;;;;22.59;76.37;99749.61;130004;1270;107646;-68
2022/08/20 02:57:41;;;;;;;11.30;8.30;;;;;;;22.57;76.60;99753.22;130036;1270;108593;-68
2022/08/20 03:00:47;;;;;;;13.40;8.50;;;;;;;22.54;76.71;99755.19;129968;1270;108740;-68
2022/08/20 03:03:55;;;;;;;10.90;7.70;;;;;;;22.50;76.96;99755.24;129996;1270;107886;-68
2022/08/20 03:07:01;;;;;;;13.70;8.40;;;;;;;22.50;76.85;99742.84;129938;1270;110435;-67
2022/08/20 03:10:08;;;;;;;13.20;8.10;;;;;;;22.49;77.03;99725.58;129895;1270;108658;-68
2022/08/20 03:13:15;;;;;;;10.70;8.60;;;;;;;22.40;77.00;99717.37;129890;1271;108720;-68
2022/08/20 03:16:20;;;;;;;13.30;9.30;;;;;;;22.34;77.25;99709.32;129700;1270;108445;-68
2022/08/20 03:19:26;;;;;;;11.60;8.20;;;;;;;22.37;77.29;99702.19;130026;1271;108980;-68
2022/08/20 03:22:32;;;;;;;10.80;8.20;;;;;;;22.40;77.35;99697.13;129949;1270;108814;-66
2022/08/20 03:25:38;;;;;;;10.40;7.60;;;;;;;22.44;77.35;99694.65;129979;1270;108783;-67
2022/08/20 03:28:43;;;;;;;12.00;8.80;;;;;;;22.44;77.50;99685.47;129943;1270;108675;-67
2022/08/20 03:31:49;;;;;;;13.40;9.20;;;;;;;22.44;77.64;99683.49;130009;1270;107037;-66
2022/08/20 03:34:54;;;;;;;10.10;8.00;;;;;;;22.43;77.69;99691.33;129890;1270;108806;-66
2022/08/20 03:37:59;;;;;;;9.60;7.60;;;;;;;22.46;77.63;99698.59;129925;1270;109623;-66
2022/08/20 03:41:05;;;;;;;11.90;8.20;;;;;;;22.53;77.60;99704.66;129874;1271;108682;-68
2022/08/20 03:44:10;;;;;;;9.60;7.90;;;;;;;22.60;77.56;99713.41;129885;1270;108974;-67
2022/08/20 03:47:16;;;;;;;9.80;8.70;;;;;;;22.59;77.39;99717.76;129889;1270;108764;-69
2022/08/20 03:50:24;;;;;;;12.60;8.50;;;;;;;22.52;77.64;99725.47;129911;1270;108690;-67
2022/08/20 03:53:30;;;;;;;9.60;8.20;;;;;;;22.49;77.77;99734.38;129934;1270;108779;-69
2022/08/20 03:56:35;;;;;;;9.00;7.40;;;;;;;22.47;77.87;99746.63;129915;1270;108896;-67
2022/08/20 03:59:41;;;;;;;11.00;8.10;;;;;;;22.47;77.78;99758.16;129891;1270;108724;-69
2022/08/20 04:02:47;;;;;;;10.30;8.20;;;;;;;22.46;77.89;99762.66;129931;1270;108514;-69
2022/08/20 04:05:53;;;;;;;9.80;7.90;;;;;;;22.45;77.87;99756.87;129944;1271;107600;-69
2022/08/20 04:08:59;;;;;;;11.50;8.80;;;;;;;22.33;77.86;99748.44;130032;1270;108796;-70
2022/08/20 04:12:05;;;;;;;12.60;8.70;;;;;;;22.12;78.03;99748.02;129909;1270;108806;-69
2022/08/20 04:15:14;;;;;;;10.60;8.30;;;;;;;22.04;78.62;99746.82;129975;1270;108868;-70
2022/08/20 04:18:21;;;;;;;14.70;9.90;;;;;;;22.07;78.80;99746.48;128958;1270;1407842;-69
2022/08/20 04:21:27;;;;;;;13.20;9.00;;;;;;;22.10;78.85;99745.80;129947;1270;108489;-69
2022/08/20 04:24:32;;;;;;;10.30;9.20;;;;;;;22.17;79.00;99750.39;130032;1270;109622;-69
2022/08/20 04:27:39;;;;;;;9.20;8.20;;;;;;;22.22;79.04;99745.80;130053;1270;108718;-68
2022/08/20 04:30:45;;;;;;;9.50;7.70;;;;;;;22.25;78.91;99743.88;130067;1271;108745;-69
2022/08/20 04:33:50;;;;;;;10.40;8.40;;;;;;;22.28;79.10;99751.44;130048;1270;108531;-68
2022/08/20 04:36:56;;;;;;;11.90;9.20;;;;;;;22.34;79.05;99760.84;130080;1270;108893;-67
2022/08/20 04:43:32;;;;;;;10.50;8.10;;;;;;;22.48;78.99;99757.98;130004;1271;108676;-67
2022/08/20 04:46:39;;;;;;;9.90;8.00;;;;;;;22.53;79.28;99758.38;130059;1271;108428;-68
2022/08/20 04:49:44;;;;;;;11.00;8.70;;;;;;;22.54;79.32;99764.11;130070;1270;108722;-67
2022/08/20 04:52:49;;;;;;;11.90;8.60;;;;;;;22.60;79.42;99765.69;130045;1271;108594;-67
2022/08/20 04:55:58;;;;;;;12.20;9.10;;;;;;;22.66;79.44;99770.20;130043;1271;108701;-67
2022/08/20 04:59:03;;;;;;;13.10;9.90;;;;;;;22.67;79.46;99767.83;130074;1271;108459;-66
2022/08/20 05:02:09;;;;;;;12.50;8.60;;;;;;;22.69;79.50;99771.89;130045;1271;108766;-68
2022/08/20 05:05:14;;;;;;;11.90;8.10;;;;;;;22.70;79.48;99779.09;130042;1270;108802;-66
2022/08/20 05:08:21;;;;;;;10.60;7.90;;;;;;;22.72;79.54;99774.98;130040;1271;108585;-67
2022/08/20 05:11:27;;;;;;;12.00;7.90;;;;;;;22.76;79.67;99782.05;130078;1270;108805;-67
2022/08/20 05:14:33;;;;;;;12.50;9.30;;;;;;;22.75;79.56;99781.78;130052;1271;108949;-67
2022/08/20 05:17:38;;;;;;;10.50;9.00;;;;;;;22.73;79.64;99778.86;130043;1271;108608;-68
2022/08/20 05:20:44;;;;;;;10.80;8.10;;;;;;;22.71;80.07;99781.83;130047;1271;109559;-67
2022/08/20 05:23:50;;;;;;;14.70;8.60;;;;;;;22.75;80.08;99785.42;130005;1270;107897;-68
2022/08/20 05:26:55;;;;;;;11.30;8.30;;;;;;;22.79;80.14;99779.33;129959;1270;108750;-64
2022/08/20 05:30:05;;;;;;;14.70;9.10;;;;;;;22.79;79.92;99775.67;130046;1271;108913;-65
2022/08/20 05:33:15;;;;;;;10.00;8.00;;;;;;;22.80;80.08;99776.65;130089;1271;108834;-65
2022/08/20 05:36:20;;;;;;;11.80;8.60;;;;;;;22.85;80.12;99776.46;130009;1270;110512;-67
2022/08/20 05:39:26;;;;;;;11.20;8.50;;;;;;;22.85;80.19;99777.76;130028;1270;107760;-65
2022/08/20 05:42:31;;;;;;;11.40;8.40;;;;;;;22.83;80.17;99775.33;130068;1270;106969;-65
2022/08/20 05:45:39;;;;;;;10.30;8.20;;;;;;;22.88;80.31;99774.88;130051;1270;107190;-68
2022/08/20 05:48:44;;;;;;;9.80;7.50;;;;;;;22.95;80.14;99775.70;130076;1270;108568;-64
2022/08/20 05:51:50;;;;;;;11.00;7.20;;;;;;;23.00;80.18;99776.13;129894;1270;107434;-65
2022/08/20 05:54:56;;;;;;;10.40;8.60;;;;;;;23.07;80.17;99773.48;130169;1270;108973;-65
2022/08/20 05:58:04;;;;;;;13.50;8.30;;;;;;;23.15;80.29;99765.28;129936;1270;109598;-65
2022/08/20 06:01:09;;;;;;;13.00;9.70;;;;;;;23.18;80.20;99766.73;129985;1270;109594;-65
2022/08/20 06:07:39;;;;;;;11.70;8.00;;;;;;;23.25;80.38;99760.48;130073;1270;108925;-65
2022/08/20 06:10:45;;;;;;;12.90;7.50;;;;;;;23.31;80.56;99758.23;130072;1271;107714;-65
2022/08/20 06:13:50;;;;;;;11.90;7.90;;;;;;;23.37;80.42;99749.70;129910;1270;108718;-64
2022/08/20 06:16:55;;;;;;;14.20;9.90;;;;;;;23.43;80.68;99747.89;129942;1270;108744;-64
2022/08/20 06:20:04;;;;;;;13.80;9.40;;;;;;;23.46;80.63;99750.23;129949;1270;108934;-65
2022/08/20 06:23:10;;;;;;;15.90;9.10;;;;;;;23.49;80.84;99752.88;129957;1270;108874;-65
2022/08/20 06:26:15;;;;;;;10.50;7.80;;;;;;;23.55;80.82;99751.67;129904;1271;108679;-64
2022/08/20 06:29:20;;;;;;;12.50;8.30;;;;;;;23.64;80.54;99740.41;130010;1270;108728;-65
2022/08/20 06:32:26;;;;;;;11.90;8.40;;;;;;;23.72;80.55;99731.08;129843;1270;108958;-65
2022/08/20 06:35:32;;;;;;;10.90;8.50;;;;;;;23.85;80.54;99731.60;130001;1270;108907;-63
2022/08/20 06:38:38;;;;;;;10.80;7.80;;;;;;;24.01;80.50;99725.46;129939;1271;108534;-71
2022/08/20 06:41:43;;;;;;;13.50;8.00;;;;;;;24.21;80.37;99728.14;129773;1271;109402;-69
2022/08/20 06:44:49;;;;;;;13.60;8.10;;;;;;;24.46;79.85;99729.73;129833;1271;109061;-71
2022/08/20 06:47:58;;;;;;;9.00;8.00;;;;;;;24.74;79.71;99729.23;130089;1272;108537;-72
2022/08/20 06:51:05;;;;;;;9.60;7.80;;;;;;;24.96;79.45;99729.36;130033;1271;108863;-70
2022/08/20 06:54:11;;;;;;;11.00;8.50;;;;;;;25.26;78.85;99731.27;130102;1271;108634;-71
2022/08/20 06:57:17;;;;;;;11.40;10.20;;;;;;;25.57;78.34;99733.06;129772;1271;109843;-69
2022/08/20 07:00:22;;;;;;;14.00;9.60;;;;;;;25.74;77.95;99729.70;129820;1271;108803;-72
2022/08/20 07:03:27;;;;;;;12.80;9.00;;;;;;;25.93;77.87;99722.85;129967;1271;108034;-73
2022/08/20 07:06:33;;;;;;;9.80;8.30;;;;;;;26.18;77.47;99720.43;129954;1271;109140;-72
2022/08/20 07:09:38;;;;;;;13.60;8.70;;;;;;;26.42;77.17;99715.33;130017;1271;108745;-69
2022/08/20 07:12:45;;;;;;;12.60;8.80;;;;;;;26.57;76.65;99717.01;129827;1271;108731;-70
2022/08/20 07:15:50;;;;;;;10.00;8.10;;;;;;;26.64;76.35;99718.07;129762;1271;109570;-68
2022/08/20 07:18:57;;;;;;;12.10;8.70;;;;;;;26.76;75.92;99723.33;129915;1271;108814;-66
2022/08/20 07:22:02;;;;;;;10.20;7.80;;;;;;;26.89;75.54;99723.77;129913;1271;109353;-69
2022/08/20 07:25:11;;;;;;;10.20;8.10;;;;;;;27.02;75.30;99723.11;129977;1271;109521;-72
2022/08/20 07:28:19;;;;;;;10.70;8.50;;;;;;;27.18;75.29;99727.30;129947;1271;108781;-66
2022/08/20 07:34:48;;;;;;;12.40;9.10;;;;;;;27.33;74.53;99738.55;129773;1271;109566;-69
2022/08/20 07:37:54;;;;;;;12.00;9.00;;;;;;;27.25;74.32;99737.11;129823;1271;108673;-68
2022/08/20 07:41:01;;;;;;;9.60;7.80;;;;;;;27.22;74.18;99735.07;129812;1271;107412;-66
2022/08/20 07:44:07;;;;;;;11.60;8.70;;;;;;;27.29;74.17;99735.86;129958;1271;108953;-65
2022/08/20 07:47:12;;;;;;;12.90;9.50;;;;;;;27.39;73.96;99735.79;130073;1271;109532;-68
2022/08/20 07:50:22;;;;;;;10.70;8.30;;;;;;;27.47;73.54;99731.27;129874;1271;108274;-66
2022/08/20 07:53:28;;;;;;;11.20;8.30;;;;;;;27.55;73.01;99724.29;129949;1271;108886;-65
2022/08/20 07:56:33;;;;;;;10.60;8.90;;;;;;;27.60;72.94;99728.61;129896;1271;109475;-65
2022/08/20 07:59:39;;;;;;;13.20;8.90;;;;;;;27.68;72.51;99728.19;129781;1271;108815;-68
2022/08/20 08:02:45;;;;;;;12.20;9.20;;;;;;;27.74;72.23;99726.59;129889;1271;109358;-67
2022/08/20 08:05:51;;;;;;;11.70;8.60;;;;;;;27.77;72.00;99727.39;129903;1271;107504;-68
2022/08/20 08:08:57;;;;;;;11.10;8.80;;;;;;;27.76;71.75;99732.44;129833;1271;108709;-69
2022/08/20 08:12:04;;;;;;;11.70;9.00;;;;;;;27.83;71.63;99730.55;129880;1271;108715;-67
2022/08/20 08:15:15;;;;;;;11.40;9.00;;;;;;;27.86;71.43;99734.05;129887;1271;108707;-67
2022/08/20 08:18:24;;;;;;;9.70;8.40;;;;;;;27.94;71.48;99738.86;129840;1271;108709;-69
2022/08/20 08:21:30;;;;;;;12.20;8.60;;;;;;;28.05;71.06;99738.81;129823;1271;108762;-68
2022/08/20 08:24:35;;;;;;;10.00;8.60;;;;;;;28.16;70.73;99741.60;129850;1271;109063;-69
2022/08/20 08:27:40;;;;;;;11.50;9.00;;;;;;;28.26;70.62;99746.05;129858;1271;108777;-69
2022/08/20 08:30:48;;;;;;;12.30;9.00;;;;;;;28.31;70.32;99741.97;129929;1271;108975;-68
2022/08/20 08:33:54;;;;;;;9.60;8.60;;;;;;;28.25;69.22;99745.84;129860;1271;108510;-67
2022/08/20 08:37:01;;;;;;;9.70;8.60;;;;;;;28.18;69.69;99748.67;129839;1271;108578;-68
2022/08/20 08:40:08;;;;;;;11.30;8.70;;;;;;;28.16;69.23;99747.91;129971;1271;109045;-68
2022/08/20 08:43:18;;;;;;;12.70;8.90;;;;;;;28.16;69.31;99749.13;129818;1271;108922;-68
2022/08/20 08:46:27;;;;;;;11.40;8.50;;;;;;;28.15;68.17;99749.35;129781;1271;108672;-67
2022/08/20 08:49:35;;;;;;;11.50;8.80;;;;;;;28.10;69.09;99750.64;129767;1271;109783;-69
2022/08/20 08:52:41;;;;;;;10.00;8.90;;;;;;;28.22;69.37;99750.14;129994;1271;109717;-68
2022/08/20 08:55:46;;;;;;;10.40;8.70;;;;;;;28.28;68.69;99752.03;129845;1271;108721;-66
2022/08/20 08:58:54;;;;;;;10.90;8.80;;;;;;;28.31;68.60;99750.38;129802;1271;109577;-69
2022/08/20 09:02:02;;;;;;;12.10;8.60;;;;;;;28.34;68.38;99755.13;129842;1271;108888;-68
2022/08/20 09:05:16;;;;;;;10.50;8.80;;;;;;;28.35;68.05;99753.46;129868;1271;108752;-70
2022/08/20 09:08:27;;;;;;;11.60;8.40;;;;;;;28.36;68.18;99756.59;129835;1271;107513;-68
2022/08/20 09:11:44;;;;;;;9.50;8.40;;;;;;;28.36;68.13;99747.80;129824;1271;108592;-67
2022/08/20 09:14:51;;;;;;;11.80;8.80;;;;;;;28.39;68.44;99743.45;129789;1271;109648;-68
2022/08/20 09:17:56;;;;;;;10.10;8.90;;;;;;;28.41;68.29;99742.95;129775;1271;108656;-68
2022/08/20 09:21:02;;;;;;;12.80;9.00;;;;;;;28.38;67.91;99743.84;129947;1271;108694;-67
2022/08/20 09:24:07;;;;;;;10.90;8.80;;;;;;;28.35;67.35;99740.36;129951;1271;108754;-66
2022/08/20 09:27:13;;;;;;;9.50;8.40;;;;;;;28.30;67.02;99741.81;129843;1271;109684;-69
2022/08/20 09:30:19;;;;;;;10.10;8.70;;;;;;;28.31;67.33;99739.99;129914;1271;108571;-71
2022/08/20 09:33:24;;;;;;;13.40;8.30;;;;;;;28.37;66.72;99741.42;129941;1271;108316;-71
2022/08/20 09:36:30;;;;;;;12.00;8.70;;;;;;;28.47;66.56;99741.55;130037;1271;109773;-71
2022/08/20 09:39:35;;;;;;;11.80;8.80;;;;;;;28.58;66.31;99734.41;129833;1271;108669;-68
2022/08/20 09:42:41;;;;;;;10.10;9.00;;;;;;;28.67;66.10;99728.04;130026;1271;108718;-69
2022/08/20 09:45:46;;;;;;;10.30;8.20;;;;;;;28.75;64.88;99735.65;129943;1271;108829;-72
2022/08/20 09:48:51;;;;;;;11.50;8.40;;;;;;;28.79;65.37;99735.23;129861;1271;109453;-70
2022/08/20 09:55:21;;;;;;;12.30;8.90;;;;;;;28.99;65.17;99738.32;129833;1271;109717;-69
2022/08/20 09:58:32;;;;;;;13.60;9.80;;;;;;;29.09;65.00;99744.00;129820;1271;108150;-67
2022/08/20 10:01:37;;;;;;;10.60;9.10;;;;;;;29.18;64.60;99743.12;129861;1271;107992;-68
2022/08/20 10:04:43;;;;;;;10.50;9.10;;;;;;;29.27;64.82;99746.38;129802;1271;108830;-68
2022/08/20 10:07:48;;;;;;;10.10;8.70;;;;;;;29.36;64.47;99746.51;129791;1271;108702;-68
2022/08/20 10:10:53;;;;;;;11.90;8.80;;;;;;;29.44;64.42;99749.07;129750;1271;108831;-71
2022/08/20 10:13:59;;;;;;;10.00;8.30;;;;;;;29.48;63.24;99747.70;129926;1271;108690;-68
2022/08/20 10:17:05;;;;;;;10.00;8.40;;;;;;;29.49;63.37;99745.93;129825;1271;109449;-67
2022/08/20 10:20:14;;;;;;;10.80;9.20;;;;;;;29.47;63.18;99743.48;129901;1271;108456;-69
2022/08/20 10:23:20;;;;;;;10.80;8.60;;;;;;;29.44;62.83;99740.91;129761;1274;107424;-75
2022/08/20 10:26:25;;;;;;;11.30;8.50;;;;;;;29.40;62.61;99741.24;129911;1273;109054;-72
2022/08/20 10:29:32;;;;;;;11.50;8.60;;;;;;;29.35;62.19;99740.81;129980;1274;108971;-72
2022/08/20 10:32:37;;;;;;;9.90;8.30;;;;;;;29.35;62.12;99734.38;130030;1274;107755;-72
2022/08/20 10:35:43;;;;;;;9.60;8.70;;;;;;;29.41;61.63;99732.60;129976;1274;109161;-78
2022/08/20 10:38:48;;;;;;;9.40;8.50;;;;;;;29.48;62.35;99729.29;129894;1273;108729;-72
2022/08/20 10:41:53;;;;;;;8.80;7.90;;;;;;;29.52;62.24;99730.67;129904;1274;109021;-72
2022/08/20 10:44:59;;;;;;;9.90;8.70;;;;;;;29.54;62.00;99726.48;129894;1274;108881;-72
2022/08/20 10:48:06;;;;;;;9.90;8.80;;;;;;;29.53;61.55;99722.57;129924;1274;108693;-71
2022/08/20 10:51:11;;;;;;;9.40;8.20;;;;;;;29.49;60.88;99723.05;129848;1273;107986;-72
2022/08/20 10:54:17;;;;;;;9.60;8.60;;;;;;;29.53;61.29;99724.39;129983;1273;108948;-72
2022/08/20 10:57:25;;;;;;;9.00;7.90;;;;;;;29.55;60.67;99725.97;129990;1271;108978;-74
2022/08/20 11:00:31;;;;;;;9.10;8.10;;;;;;;29.59;60.99;99721.13;130198;1271;108771;-73
2022/08/20 11:03:37;;;;;;;10.90;7.60;;;;;;;29.67;60.33;99717.46;130282;1271;107989;-73
2022/08/20 11:06:44;;;;;;;9.20;6.40;;;;;;;29.68;59.96;99711.39;130151;1271;108148;-70
2022/08/20 11:09:51;;;;;;;8.30;6.60;;;;;;;29.82;60.09;99714.66;129989;1271;108988;-72
2022/08/20 11:12:57;;;;;;;10.10;6.20;;;;;;;29.95;59.53;99719.34;130154;1271;107880;-71
2022/08/20 11:16:03;;;;;;;8.60;6.60;;;;;;;30.02;59.85;99716.23;130317;1271;108792;-73
2022/08/20 11:19:09;;;;;;;9.20;5.80;;;;;;;30.11;59.44;99715.10;130102;1271;108976;-73
2022/08/20 11:22:15;;;;;;;10.40;6.20;;;;;;;30.17;59.22;99710.90;130097;1271;108740;-74
2022/08/20 11:25:21;;;;;;;6.20;5.50;;;;;;;30.23;59.04;99709.00;130372;1271;108789;-74
2022/08/20 11:28:29;;;;;;;6.50;5.20;;;;;;;30.30;58.64;99704.71;130419;1271;107788;-75
2022/08/20 11:31:34;;;;;;;6.40;5.70;;;;;;;30.31;58.46;99708.02;130143;1271;108550;-78
2022/08/20 11:34:40;;;;;;;7.30;5.50;;;;;;;30.28;57.99;99715.64;130022;1271;108861;-76
2022/08/20 11:37:45;;;;;;;7.70;5.40;;;;;;;30.30;58.43;99714.63;129957;1271;108714;-75
2022/08/20 11:40:51;;;;;;;6.20;5.10;;;;;;;30.39;57.95;99709.34;129985;1271;108752;-76
2022/08/20 11:43:56;;;;;;;7.60;6.00;;;;;;;30.47;57.79;99706.41;129997;1271;108730;-76
2022/08/20 11:47:03;;;;;;;9.20;5.70;;;;;;;30.45;56.69;99700.89;130110;1270;108736;-76
2022/08/20 11:50:13;;;;;;;6.70;5.60;;;;;;;30.42;56.97;99702.63;130283;1271;108810;-78
2022/08/20 11:53:18;;;;;;;8.10;5.30;;;;;;;30.50;57.27;99700.20;130190;1271;109013;-75
2022/08/20 11:56:24;;;;;;;6.40;5.00;;;;;;;30.58;56.57;99696.11;130176;1271;109162;-74
2022/08/20 11:59:29;;;;;;;7.90;5.60;;;;;;;30.59;56.24;99689.98;130024;1271;109138;-75
2022/08/20 12:02:34;;;;;;;7.00;5.40;;;;;;;30.61;56.60;99688.04;129953;1271;109036;-71
2022/08/20 12:05:43;;;;;;;7.10;5.00;;;;;;;30.65;56.32;99683.70;130134;1271;108721;-75
2022/08/20 12:08:48;;;;;;;8.40;5.90;;;;;;;30.70;55.94;99684.29;129972;1271;108678;-70
2022/08/20 12:11:53;;;;;;;8.00;5.60;;;;;;;30.78;55.96;99680.73;129999;1271;108739;-73
2022/08/20 12:14:59;;;;;;;8.50;5.50;;;;;;;30.96;56.78;99681.38;130007;1271;108512;-68
2022/08/20 12:18:07;;;;;;;6.80;5.30;;;;;;;31.13;56.27;99683.71;129908;1271;108704;-68
2022/08/20 12:21:14;;;;;;;7.20;5.10;;;;;;;31.32;56.15;99676.59;129971;1271;108548;-69
2022/08/20 12:24:19;;;;;;;10.50;5.80;;;;;;;31.44;55.86;99677.45;129954;1271;108737;-73
2022/08/20 12:27:26;;;;;;;7.70;5.60;;;;;;;31.50;55.11;99673.34;129917;1271;109004;-70
2022/08/20 12:30:33;;;;;;;6.30;5.10;;;;;;;31.55;55.35;99665.27;129900;1271;107472;-69
2022/08/20 12:33:39;;;;;;;6.30;4.90;;;;;;;31.59;54.18;99658.09;129967;1270;109021;-71
2022/08/20 12:36:44;;;;;;;8.10;5.00;;;;;;;31.60;53.17;99659.33;129906;1271;107365;-72
2022/08/20 12:39:53;;;;;;;6.20;4.90;;;;;;;31.65;54.28;99660.70;130003;1271;107530;-74
2022/08/20 12:43:00;;;;;;;7.20;5.30;;;;;;;31.79;53.61;99663.06;130059;1271;108610;-71
2022/08/20 12:46:06;;;;;;;8.50;4.90;;;;;;;31.82;53.29;99658.70;129969;1271;109588;-70
2022/08/20 12:49:11;;;;;;;7.00;5.40;;;;;;;31.80;53.53;99659.68;129998;1271;108918;-70
2022/08/20 12:52:18;;;;;;;7.70;5.30;;;;;;;31.70;53.23;99654.33;129954;1270;108854;-71
2022/08/20 12:55:24;;;;;;;7.60;4.70;;;;;;;31.57;53.12;99654.00;130009;1271;108639;-71
2022/08/20 12:58:29;;;;;;;5.70;5.00;;;;;;;31.42;52.76;99648.73;129959;1271;108924;-69
2022/08/20 13:01:34;;;;;;;6.10;5.30;;;;;;;31.29;52.86;99650.13;129989;1271;108056;-72
2022/08/20 13:04:40;;;;;;;7.00;5.00;;;;;;;31.17;53.37;99647.61;130002;1271;108834;-69
2022/08/20 13:07:46;;;;;;;6.80;5.40;;;;;;;31.08;53.55;99640.05;129941;1271;108826;-70
2022/08/20 13:10:52;;;;;;;6.80;6.00;;;;;;;31.07;53.93;99636.39;130006;1271;108929;-73
